SBURSBCF

Guest
Details From SBUR - Uberaba
To SBCF - Tancredo Neves
Flight Number -
Tags generated
Created
Modified
Stats Distance 230 nm / 427 km
Max Altitude 13,300 ft / 4,054 m
Waypoints 3
Social Downloads 7
Likes 0
Share VATSIM

Download

Looking for another format? Having issues loading an existing format? Contact us
Advertisement - Login to hide

Notes

Basic altitude profile: - Ascent Rate: 1500ft/min - Ascent Speed: 120kts - Cruise Altitude: 9500ft - Cruise Speed: 160kts - Descent Rate: 1500ft/min - Descent Speed: 140kts Options: - Use NATs: no - Use PACOTS: no - Use low airways: no - Use high airways: no

Route

SBUR 2000S04500W SBCF

ID Type Via Altitude Latitude Longitude Leg Dist Tot Dist Heading (true) Name
O SBUR APT - 0 ft / 0 m -19.76500˚ -47.96478˚ - 0 nm - Uberaba
2000S04500W LATLON - 13,300 ft / 4,054 m -20.00000˚ -45.00000˚ 168 nm 168 nm 95° / 94° -
O SBCF APT - 0 ft / 0 m -19.63376˚ -43.96885˚ 62 nm 230 nm 69° / 69° Tancredo Neves

Altitude Profile

Advertisement - Login to hide

Weather


0- 5 10 15 20 25 30 35+ Temperature / ° C

Clouds and Precipitation
Forecast for 2017-12-12 06:00 UTC. Updated an hour ago

Ground ~20,000 ft ~40,000 ft Winds

SBUR

Details ICAO SBUR (UBA)
Name Uberaba
Region Brazil
Timezone America/Sao_Paulo (UTC-2.0)
Stats Elevation 2,655 ft / 809 m (AMSL)
Location -19.765000° -47.964777°
Runways 1
Magnetic Variation 21.284° W

METAR

Not found

TAF

TAF SBUR 120050Z 1206/1218 32005KT 9999 FEW040TN21/1209Z TX30/1217Z PROB30 1207/1211 BKN003 BECMG 1215/1217 28010KT SCT045 RMK PGF

Decode

Departure Runways

ID Width Length Bearing (true) Bearing (mag) Surface Threshold Offset Overrun Length
17 148 ft / 45 m 5,791 ft / 1,765 m 149.07° 170.35° Asphalt 0 ft / 0 m 0 ft / 0 m
35 148 ft / 45 m 5,791 ft / 1,765 m 329.07° 350.35° Asphalt 0 ft / 0 m 0 ft / 0 m

SBCF

Details ICAO SBCF (CNF)
Name Tancredo Neves
Region Brazil
Timezone America/Sao_Paulo (UTC-2.0)
Stats Elevation 2,715 ft / 828 m (AMSL)
Location -19.633758° -43.968854°
Runways 1
Magnetic Variation 22.803° W

METAR

SBCF 120600Z 09004KT 9999 BKN010 BKN015 BKN100 19/18 Q1013

Decode

TAF

TAF SBCF 120400Z 1206/1306 32005KT 7000 BKN015 TN19/1209Z TX26/1218Z PROB30 1209/1211 1000 BR BKN005 BECMG 1216/1218 36003KT SCT030 FEW040TCU PROB30 1216/1224 TS SCT008 BKN020 FEW030CB BECMG 1301/1303 06004KT BKN008 BKN020 RMK PDS

Decode

Destination Runways

ID Width Length Bearing (true) Bearing (mag) Surface Threshold Offset Overrun Length
16 148 ft / 45 m 9,872 ft / 3,009 m 138.97° 161.77° Asphalt 0 ft / 0 m 203 ft / 62 m
34 148 ft / 45 m 9,872 ft / 3,009 m 318.96° 341.76° Asphalt 0 ft / 0 m 203 ft / 62 m

Approach Navaids

Runway Type Ident Frequency Range Bearing (true) Bearing (mag) Slope Elevation
16 Localiser ICF 109.70 MHz 18 nm / 33 km 138.90° 161.71° - 2,716 ft / 828 m (AMSL)
16 Glidescope ICF 109.70 MHz 10 nm / 19 km 138.96° 161.77° 3.00° 2,716 ft / 828 m (AMSL)